createdAt,value
2019-03-06T07:14:38.713Z,19.48
2019-03-06T07:24:51.292Z,20.60
2019-03-06T08:05:54.307Z,18.77
2019-03-06T08:26:05.520Z,17.32
2019-03-06T08:36:10.257Z,16.57
2019-03-06T08:46:19.694Z,12.80
2019-03-06T08:56:35.280Z,14.95
2019-03-06T09:27:18.485Z,15.20
2019-03-06T09:47:36.839Z,19.90
2019-03-06T09:57:43.317Z,19.70
2019-03-06T10:17:58.370Z,15.40
2019-03-06T10:38:16.417Z,13.68
2019-03-06T10:58:19.286Z,12.93
2019-03-06T11:18:30.115Z,15.10
2019-03-06T11:28:35.306Z,13.95
2019-03-06T11:48:44.124Z,14.60
2019-03-06T12:29:02.244Z,14.65
2019-03-06T12:49:13.290Z,13.72
2019-03-06T13:39:48.097Z,13.32
2019-03-06T13:59:56.644Z,9.90
2019-03-06T14:10:01.297Z,14.10
2019-03-06T14:30:16.389Z,10.48
2019-03-06T15:20:38.093Z,10.63
2019-03-06T15:30:43.116Z,23.45
2019-03-06T15:40:48.233Z,18.15
2019-03-06T16:00:56.748Z,24.90
2019-03-06T16:11:02.602Z,23.02
2019-03-06T16:31:11.412Z,22.85
2019-03-06T16:51:21.104Z,49.75
2019-03-06T17:01:27.258Z,53.90
2019-03-06T17:21:36.235Z,63.83
2019-03-06T17:41:44.688Z,53.95
2019-03-06T17:51:50.646Z,49.67
2019-03-06T18:01:55.286Z,48.10
2019-03-06T18:42:12.971Z,38.60
2019-03-06T18:52:20.591Z,43.75
2019-03-06T19:12:30.272Z,39.95
2019-03-06T19:32:40.250Z,41.98
2019-03-06T19:54:34.654Z,27.00
2019-03-06T20:57:45.691Z,28.12
2019-03-06T21:07:50.240Z,29.80
2019-03-06T21:27:58.675Z,26.87
2019-03-06T21:58:12.304Z,24.43
2019-03-06T22:18:22.276Z,25.35
2019-03-06T22:38:31.349Z,22.65
2019-03-06T22:58:42.305Z,23.50
2019-03-06T23:18:51.282Z,24.60
2019-03-06T23:39:00.143Z,23.73
2019-03-06T23:49:06.373Z,21.87
